sensor_id;sensor_type;location;lat;lon;timestamp;temperature;humidity
2639;DHT22;1329;51.384;7.122;2022-11-06T00:00:24;11.30;94.00
2639;DHT22;1329;51.384;7.122;2022-11-06T00:02:52;11.30;93.90
2639;DHT22;1329;51.384;7.122;2022-11-06T00:05:19;11.30;93.20
2639;DHT22;1329;51.384;7.122;2022-11-06T00:08:03;11.30;93.80
2639;DHT22;1329;51.384;7.122;2022-11-06T00:10:30;11.30;93.50
2639;DHT22;1329;51.384;7.122;2022-11-06T00:12:58;11.30;93.50
2639;DHT22;1329;51.384;7.122;2022-11-06T00:15:25;11.30;93.40
2639;DHT22;1329;51.384;7.122;2022-11-06T00:17:53;11.30;93.00
2639;DHT22;1329;51.384;7.122;2022-11-06T00:20:20;11.30;92.40
2639;DHT22;1329;51.384;7.122;2022-11-06T00:22:47;11.30;92.80
2639;DHT22;1329;51.384;7.122;2022-11-06T00:25:14;11.20;92.70
2639;DHT22;1329;51.384;7.122;2022-11-06T00:27:41;11.20;92.60
2639;DHT22;1329;51.384;7.122;2022-11-06T00:30:09;11.20;92.60
2639;DHT22;1329;51.384;7.122;2022-11-06T00:32:37;11.20;92.30
2639;DHT22;1329;51.384;7.122;2022-11-06T00:35:06;11.20;92.40
2639;DHT22;1329;51.384;7.122;2022-11-06T00:37:33;11.10;91.60
2639;DHT22;1329;51.384;7.122;2022-11-06T00:40:01;11.10;92.20
2639;DHT22;1329;51.384;7.122;2022-11-06T00:42:28;11.10;92.20
2639;DHT22;1329;51.384;7.122;2022-11-06T00:44:55;11.10;92.80
2639;DHT22;1329;51.384;7.122;2022-11-06T00:47:22;11.00;92.40
2639;DHT22;1329;51.384;7.122;2022-11-06T00:49:49;11.00;92.30
2639;DHT22;1329;51.384;7.122;2022-11-06T00:52:18;11.00;92.30
2639;DHT22;1329;51.384;7.122;2022-11-06T00:54:45;10.90;91.90
2639;DHT22;1329;51.384;7.122;2022-11-06T00:57:12;11.00;92.50
2639;DHT22;1329;51.384;7.122;2022-11-06T00:59:39;10.90;92.60
2639;DHT22;1329;51.384;7.122;2022-11-06T01:02:06;10.90;92.60
2639;DHT22;1329;51.384;7.122;2022-11-06T01:04:33;10.90;92.70
2639;DHT22;1329;51.384;7.122;2022-11-06T01:06:59;10.80;92.70
2639;DHT22;1329;51.384;7.122;2022-11-06T01:09:28;10.80;92.70
2639;DHT22;1329;51.384;7.122;2022-11-06T01:11:57;10.80;92.20
2639;DHT22;1329;51.384;7.122;2022-11-06T01:14:25;10.80;92.40
2639;DHT22;1329;51.384;7.122;2022-11-06T01:16:52;10.80;92.50
2639;DHT22;1329;51.384;7.122;2022-11-06T01:19:20;10.80;92.80
2639;DHT22;1329;51.384;7.122;2022-11-06T01:21:49;10.80;92.50
2639;DHT22;1329;51.384;7.122;2022-11-06T01:24:20;10.80;92.40
2639;DHT22;1329;51.384;7.122;2022-11-06T01:26:50;10.80;92.30
2639;DHT22;1329;51.384;7.122;2022-11-06T01:29:18;10.80;92.10
2639;DHT22;1329;51.384;7.122;2022-11-06T01:31:46;10.80;92.30
2639;DHT22;1329;51.384;7.122;2022-11-06T01:34:15;10.80;92.40
2639;DHT22;1329;51.384;7.122;2022-11-06T01:36:43;10.80;92.50
2639;DHT22;1329;51.384;7.122;2022-11-06T01:39:13;10.80;92.60
2639;DHT22;1329;51.384;7.122;2022-11-06T01:41:42;10.70;92.20
2639;DHT22;1329;51.384;7.122;2022-11-06T01:47:30;10.80;90.30
2639;DHT22;1329;51.384;7.122;2022-11-06T01:50:00;10.80;92.50
2639;DHT22;1329;51.384;7.122;2022-11-06T01:52:30;10.80;91.80
2639;DHT22;1329;51.384;7.122;2022-11-06T01:55:05;10.70;92.20
2639;DHT22;1329;51.384;7.122;2022-11-06T01:57:34;10.70;92.00
2639;DHT22;1329;51.384;7.122;2022-11-06T02:00:03;10.70;92.80
2639;DHT22;1329;51.384;7.122;2022-11-06T02:02:31;10.70;92.10
2639;DHT22;1329;51.384;7.122;2022-11-06T02:04:58;10.70;92.60
2639;DHT22;1329;51.384;7.122;2022-11-06T02:07:26;10.70;92.80
2639;DHT22;1329;51.384;7.122;2022-11-06T02:09:53;10.70;92.70
2639;DHT22;1329;51.384;7.122;2022-11-06T02:12:27;10.70;92.70
2639;DHT22;1329;51.384;7.122;2022-11-06T02:15:09;10.80;91.50
2639;DHT22;1329;51.384;7.122;2022-11-06T02:17:48;10.70;91.20
2639;DHT22;1329;51.384;7.122;2022-11-06T02:20:26;10.70;91.00
2639;DHT22;1329;51.384;7.122;2022-11-06T02:23:24;10.70;91.60
2639;DHT22;1329;51.384;7.122;2022-11-06T02:26:11;10.80;90.00
2639;DHT22;1329;51.384;7.122;2022-11-06T02:28:53;10.70;90.60
2639;DHT22;1329;51.384;7.122;2022-11-06T02:31:25;10.70;91.40
2639;DHT22;1329;51.384;7.122;2022-11-06T02:33:59;10.70;91.40
2639;DHT22;1329;51.384;7.122;2022-11-06T02:36:31;10.70;91.40
2639;DHT22;1329;51.384;7.122;2022-11-06T02:39:04;10.70;91.90
2639;DHT22;1329;51.384;7.122;2022-11-06T02:41:37;10.70;91.70
2639;DHT22;1329;51.384;7.122;2022-11-06T02:44:10;10.70;91.60
2639;DHT22;1329;51.384;7.122;2022-11-06T02:46:42;10.70;91.30
2639;DHT22;1329;51.384;7.122;2022-11-06T02:49:14;10.70;91.60
2639;DHT22;1329;51.384;7.122;2022-11-06T02:51:48;10.70;91.80
2639;DHT22;1329;51.384;7.122;2022-11-06T02:54:17;10.60;91.70
2639;DHT22;1329;51.384;7.122;2022-11-06T02:56:49;10.70;92.10
2639;DHT22;1329;51.384;7.122;2022-11-06T02:59:21;10.70;91.80
2639;DHT22;1329;51.384;7.122;2022-11-06T03:01:52;10.70;91.30
2639;DHT22;1329;51.384;7.122;2022-11-06T03:04:24;10.70;91.90
2639;DHT22;1329;51.384;7.122;2022-11-06T03:06:57;10.70;91.10
2639;DHT22;1329;51.384;7.122;2022-11-06T03:09:28;10.70;90.80
2639;DHT22;1329;51.384;7.122;2022-11-06T03:12:00;10.70;91.40
2639;DHT22;1329;51.384;7.122;2022-11-06T03:14:35;10.70;91.00
2639;DHT22;1329;51.384;7.122;2022-11-06T03:17:09;10.70;90.60
2639;DHT22;1329;51.384;7.122;2022-11-06T03:19:45;10.60;90.40
2639;DHT22;1329;51.384;7.122;2022-11-06T03:22:20;10.70;90.20
2639;DHT22;1329;51.384;7.122;2022-11-06T03:24:57;10.60;90.70
2639;DHT22;1329;51.384;7.122;2022-11-06T03:27:32;10.60;90.40
2639;DHT22;1329;51.384;7.122;2022-11-06T03:30:06;10.60;90.30
2639;DHT22;1329;51.384;7.122;2022-11-06T03:32:37;10.60;90.70
2639;DHT22;1329;51.384;7.122;2022-11-06T03:35:09;10.60;90.90
2639;DHT22;1329;51.384;7.122;2022-11-06T03:37:42;10.60;90.90
2639;DHT22;1329;51.384;7.122;2022-11-06T03:40:15;10.60;90.70
2639;DHT22;1329;51.384;7.122;2022-11-06T03:42:48;10.60;90.60
2639;DHT22;1329;51.384;7.122;2022-11-06T03:45:21;10.50;91.20
2639;DHT22;1329;51.384;7.122;2022-11-06T03:47:52;10.50;90.70
2639;DHT22;1329;51.384;7.122;2022-11-06T03:50:26;10.50;90.90
2639;DHT22;1329;51.384;7.122;2022-11-06T03:52:59;10.50;91.00
2639;DHT22;1329;51.384;7.122;2022-11-06T03:55:32;10.50;91.30
2639;DHT22;1329;51.384;7.122;2022-11-06T03:58:04;10.50;91.20
2639;DHT22;1329;51.384;7.122;2022-11-06T04:00:38;10.50;91.30
2639;DHT22;1329;51.384;7.122;2022-11-06T04:03:13;10.50;91.20
2639;DHT22;1329;51.384;7.122;2022-11-06T04:05:46;10.50;90.50
2639;DHT22;1329;51.384;7.122;2022-11-06T04:08:19;10.50;91.50
2639;DHT22;1329;51.384;7.122;2022-11-06T04:11:06;10.50;91.80
2639;DHT22;1329;51.384;7.122;2022-11-06T04:13:51;10.50;91.60
2639;DHT22;1329;51.384;7.122;2022-11-06T04:16:30;10.50;91.70
2639;DHT22;1329;51.384;7.122;2022-11-06T04:18:59;10.50;90.90
2639;DHT22;1329;51.384;7.122;2022-11-06T04:21:38;10.50;91.80
2639;DHT22;1329;51.384;7.122;2022-11-06T04:24:18;10.50;90.90
2639;DHT22;1329;51.384;7.122;2022-11-06T04:27:16;10.50;90.70
2639;DHT22;1329;51.384;7.122;2022-11-06T04:30:02;10.50;90.40
2639;DHT22;1329;51.384;7.122;2022-11-06T04:32:39;10.50;90.10
2639;DHT22;1329;51.384;7.122;2022-11-06T04:35:23;10.50;90.40
2639;DHT22;1329;51.384;7.122;2022-11-06T04:38:01;10.50;90.80
2639;DHT22;1329;51.384;7.122;2022-11-06T04:40:39;10.50;90.90
2639;DHT22;1329;51.384;7.122;2022-11-06T04:43:14;10.50;90.60
2639;DHT22;1329;51.384;7.122;2022-11-06T04:45:50;10.50;91.10
2639;DHT22;1329;51.384;7.122;2022-11-06T04:48:22;10.50;91.60
2639;DHT22;1329;51.384;7.122;2022-11-06T04:50:52;10.50;91.20
2639;DHT22;1329;51.384;7.122;2022-11-06T04:53:22;10.50;91.40
2639;DHT22;1329;51.384;7.122;2022-11-06T04:55:53;10.50;91.70
2639;DHT22;1329;51.384;7.122;2022-11-06T04:58:20;10.50;91.70
2639;DHT22;1329;51.384;7.122;2022-11-06T05:00:49;10.50;92.10
2639;DHT22;1329;51.384;7.122;2022-11-06T05:03:17;10.50;91.60
2639;DHT22;1329;51.384;7.122;2022-11-06T05:05:46;10.50;92.40
2639;DHT22;1329;51.384;7.122;2022-11-06T05:08:14;10.50;91.50
2639;DHT22;1329;51.384;7.122;2022-11-06T05:10:44;10.50;91.80
2639;DHT22;1329;51.384;7.122;2022-11-06T05:13:12;10.50;92.00
2639;DHT22;1329;51.384;7.122;2022-11-06T05:15:39;10.50;91.80
2639;DHT22;1329;51.384;7.122;2022-11-06T05:18:06;10.50;92.10
2639;DHT22;1329;51.384;7.122;2022-11-06T05:20:34;10.50;92.00
2639;DHT22;1329;51.384;7.122;2022-11-06T05:23:03;10.40;91.90
2639;DHT22;1329;51.384;7.122;2022-11-06T05:25:30;10.40;91.60
2639;DHT22;1329;51.384;7.122;2022-11-06T05:27:59;10.40;91.90
2639;DHT22;1329;51.384;7.122;2022-11-06T05:30:26;10.40;92.10
2639;DHT22;1329;51.384;7.122;2022-11-06T05:32:54;10.50;92.20
2639;DHT22;1329;51.384;7.122;2022-11-06T05:35:21;10.40;92.30
2639;DHT22;1329;51.384;7.122;2022-11-06T05:37:47;10.40;92.50
2639;DHT22;1329;51.384;7.122;2022-11-06T05:40:16;10.40;92.50
2639;DHT22;1329;51.384;7.122;2022-11-06T05:42:43;10.50;92.10
2639;DHT22;1329;51.384;7.122;2022-11-06T05:45:11;10.40;92.50
2639;DHT22;1329;51.384;7.122;2022-11-06T05:47:41;10.40;92.10
2639;DHT22;1329;51.384;7.122;2022-11-06T05:50:09;10.40;91.90
2639;DHT22;1329;51.384;7.122;2022-11-06T05:52:36;10.40;92.50
2639;DHT22;1329;51.384;7.122;2022-11-06T05:55:04;10.40;92.50
2639;DHT22;1329;51.384;7.122;2022-11-06T05:57:33;10.40;92.60
2639;DHT22;1329;51.384;7.122;2022-11-06T06:00:00;10.40;92.30
2639;DHT22;1329;51.384;7.122;2022-11-06T06:02:26;10.40;92.80
2639;DHT22;1329;51.384;7.122;2022-11-06T06:04:53;10.40;93.00
2639;DHT22;1329;51.384;7.122;2022-11-06T06:07:20;10.40;92.80
2639;DHT22;1329;51.384;7.122;2022-11-06T06:09:48;10.40;92.90
2639;DHT22;1329;51.384;7.122;2022-11-06T06:12:16;10.40;92.90
2639;DHT22;1329;51.384;7.122;2022-11-06T06:14:44;10.40;93.00
2639;DHT22;1329;51.384;7.122;2022-11-06T06:17:11;10.40;92.60
2639;DHT22;1329;51.384;7.122;2022-11-06T06:19:38;10.40;93.00
2639;DHT22;1329;51.384;7.122;2022-11-06T06:22:04;10.40;93.00
2639;DHT22;1329;51.384;7.122;2022-11-06T06:24:31;10.40;93.10
2639;DHT22;1329;51.384;7.122;2022-11-06T06:26:59;10.40;93.20
2639;DHT22;1329;51.384;7.122;2022-11-06T06:29:26;10.40;93.20
2639;DHT22;1329;51.384;7.122;2022-11-06T06:31:54;10.40;93.30
2639;DHT22;1329;51.384;7.122;2022-11-06T06:34:21;10.40;93.00
2639;DHT22;1329;51.384;7.122;2022-11-06T06:36:49;10.40;93.50
2639;DHT22;1329;51.384;7.122;2022-11-06T06:39:16;10.40;93.30
2639;DHT22;1329;51.384;7.122;2022-11-06T06:41:44;10.40;93.40
2639;DHT22;1329;51.384;7.122;2022-11-06T06:44:12;10.40;93.50
2639;DHT22;1329;51.384;7.122;2022-11-06T06:46:39;10.40;93.40
2639;DHT22;1329;51.384;7.122;2022-11-06T06:49:08;10.40;93.50
2639;DHT22;1329;51.384;7.122;2022-11-06T06:51:35;10.40;93.20
2639;DHT22;1329;51.384;7.122;2022-11-06T06:54:01;10.40;93.70
2639;DHT22;1329;51.384;7.122;2022-11-06T06:56:28;10.40;93.80
2639;DHT22;1329;51.384;7.122;2022-11-06T06:58:55;10.40;93.80
2639;DHT22;1329;51.384;7.122;2022-11-06T07:01:22;10.40;94.00
2639;DHT22;1329;51.384;7.122;2022-11-06T07:03:49;10.50;94.20
2639;DHT22;1329;51.384;7.122;2022-11-06T07:06:18;10.40;94.10
2639;DHT22;1329;51.384;7.122;2022-11-06T07:08:45;10.50;93.80
2639;DHT22;1329;51.384;7.122;2022-11-06T07:11:12;10.50;94.10
2639;DHT22;1329;51.384;7.122;2022-11-06T07:13:39;10.50;94.20
2639;DHT22;1329;51.384;7.122;2022-11-06T07:16:08;10.50;94.20
2639;DHT22;1329;51.384;7.122;2022-11-06T07:18:36;10.50;93.70
2639;DHT22;1329;51.384;7.122;2022-11-06T07:21:03;10.60;94.00
2639;DHT22;1329;51.384;7.122;2022-11-06T07:23:33;10.50;93.90
2639;DHT22;1329;51.384;7.122;2022-11-06T07:26:00;10.60;93.60
2639;DHT22;1329;51.384;7.122;2022-11-06T07:28:27;10.60;94.10
2639;DHT22;1329;51.384;7.122;2022-11-06T07:30:57;10.60;94.10
2639;DHT22;1329;51.384;7.122;2022-11-06T07:33:25;10.60;93.30
2639;DHT22;1329;51.384;7.122;2022-11-06T07:35:52;10.60;94.10
2639;DHT22;1329;51.384;7.122;2022-11-06T07:38:19;10.60;94.10
2639;DHT22;1329;51.384;7.122;2022-11-06T07:40:47;10.60;94.20
2639;DHT22;1329;51.384;7.122;2022-11-06T07:43:14;10.60;93.90
2639;DHT22;1329;51.384;7.122;2022-11-06T07:45:41;10.60;94.30
2639;DHT22;1329;51.384;7.122;2022-11-06T07:48:08;10.70;94.30
2639;DHT22;1329;51.384;7.122;2022-11-06T07:50:34;10.70;94.30
2639;DHT22;1329;51.384;7.122;2022-11-06T07:53:02;10.70;94.30
2639;DHT22;1329;51.384;7.122;2022-11-06T07:55:29;10.80;94.20
2639;DHT22;1329;51.384;7.122;2022-11-06T07:57:58;10.70;94.20
2639;DHT22;1329;51.384;7.122;2022-11-06T08:00:26;10.80;93.70
2639;DHT22;1329;51.384;7.122;2022-11-06T08:02:53;10.80;94.30
2639;DHT22;1329;51.384;7.122;2022-11-06T08:05:22;10.80;94.40
2639;DHT22;1329;51.384;7.122;2022-11-06T08:07:55;10.80;94.30
2639;DHT22;1329;51.384;7.122;2022-11-06T08:10:22;10.90;93.20
2639;DHT22;1329;51.384;7.122;2022-11-06T08:12:49;10.90;94.50
2639;DHT22;1329;51.384;7.122;2022-11-06T08:15:17;10.90;94.50
2639;DHT22;1329;51.384;7.122;2022-11-06T08:17:44;10.90;93.90
2639;DHT22;1329;51.384;7.122;2022-11-06T08:20:10;11.00;94.50
2639;DHT22;1329;51.384;7.122;2022-11-06T08:22:38;11.00;94.40
2639;DHT22;1329;51.384;7.122;2022-11-06T08:25:05;11.10;94.70
2639;DHT22;1329;51.384;7.122;2022-11-06T08:27:33;11.10;94.50
2639;DHT22;1329;51.384;7.122;2022-11-06T08:30:01;11.10;94.80
2639;DHT22;1329;51.384;7.122;2022-11-06T08:32:29;11.20;94.50
2639;DHT22;1329;51.384;7.122;2022-11-06T08:34:56;11.20;94.10
2639;DHT22;1329;51.384;7.122;2022-11-06T08:37:24;11.30;94.70
2639;DHT22;1329;51.384;7.122;2022-11-06T08:39:50;11.30;94.40
2639;DHT22;1329;51.384;7.122;2022-11-06T08:42:17;11.30;94.30
2639;DHT22;1329;51.384;7.122;2022-11-06T08:44:44;11.30;94.20
2639;DHT22;1329;51.384;7.122;2022-11-06T08:47:11;11.40;94.20
2639;DHT22;1329;51.384;7.122;2022-11-06T08:49:39;11.40;94.20
2639;DHT22;1329;51.384;7.122;2022-11-06T08:52:06;11.40;93.50
2639;DHT22;1329;51.384;7.122;2022-11-06T08:54:32;11.40;94.10
2639;DHT22;1329;51.384;7.122;2022-11-06T08:56:59;11.50;94.30
2639;DHT22;1329;51.384;7.122;2022-11-06T08:59:26;11.50;94.30
2639;DHT22;1329;51.384;7.122;2022-11-06T09:01:53;11.60;94.60
2639;DHT22;1329;51.384;7.122;2022-11-06T09:04:22;11.60;94.80
2639;DHT22;1329;51.384;7.122;2022-11-06T09:06:50;11.70;95.00
2639;DHT22;1329;51.384;7.122;2022-11-06T09:09:17;11.80;94.70
2639;DHT22;1329;51.384;7.122;2022-11-06T09:11:44;11.80;95.60
2639;DHT22;1329;51.384;7.122;2022-11-06T09:14:11;11.90;95.60
2639;DHT22;1329;51.384;7.122;2022-11-06T09:16:37;12.10;95.60
2639;DHT22;1329;51.384;7.122;2022-11-06T09:19:04;12.10;95.30
2639;DHT22;1329;51.384;7.122;2022-11-06T09:21:31;12.20;94.90
2639;DHT22;1329;51.384;7.122;2022-11-06T09:24:01;12.30;94.60
2639;DHT22;1329;51.384;7.122;2022-11-06T09:26:28;12.40;93.40
2639;DHT22;1329;51.384;7.122;2022-11-06T09:28:55;12.50;94.00
2639;DHT22;1329;51.384;7.122;2022-11-06T09:31:22;12.50;93.80
2639;DHT22;1329;51.384;7.122;2022-11-06T09:33:48;12.60;93.70
2639;DHT22;1329;51.384;7.122;2022-11-06T09:36:16;12.60;93.50
2639;DHT22;1329;51.384;7.122;2022-11-06T09:38:43;12.70;93.00
2639;DHT22;1329;51.384;7.122;2022-11-06T09:41:17;12.70;92.80
2639;DHT22;1329;51.384;7.122;2022-11-06T09:43:58;12.80;90.00
2639;DHT22;1329;51.384;7.122;2022-11-06T09:46:36;12.90;88.80
2639;DHT22;1329;51.384;7.122;2022-11-06T09:49:10;13.00;92.00
2639;DHT22;1329;51.384;7.122;2022-11-06T09:51:46;13.00;91.30
2639;DHT22;1329;51.384;7.122;2022-11-06T09:54:19;13.10;90.10
2639;DHT22;1329;51.384;7.122;2022-11-06T09:56:54;13.20;89.90
2639;DHT22;1329;51.384;7.122;2022-11-06T09:59:24;13.20;87.70
2639;DHT22;1329;51.384;7.122;2022-11-06T10:01:53;13.20;90.80
2639;DHT22;1329;51.384;7.122;2022-11-06T10:04:37;13.30;88.20
2639;DHT22;1329;51.384;7.122;2022-11-06T10:07:16;13.30;82.90
2639;DHT22;1329;51.384;7.122;2022-11-06T10:09:48;13.30;83.30
2639;DHT22;1329;51.384;7.122;2022-11-06T10:12:21;13.30;88.90
2639;DHT22;1329;51.384;7.122;2022-11-06T10:14:58;13.30;82.20
2639;DHT22;1329;51.384;7.122;2022-11-06T10:17:40;13.30;80.90
2639;DHT22;1329;51.384;7.122;2022-11-06T10:20:17;13.30;78.60
2639;DHT22;1329;51.384;7.122;2022-11-06T10:22:54;13.30;83.70
2639;DHT22;1329;51.384;7.122;2022-11-06T10:25:40;13.30;79.60
2639;DHT22;1329;51.384;7.122;2022-11-06T10:28:28;13.30;80.00
2639;DHT22;1329;51.384;7.122;2022-11-06T10:31:10;13.30;81.90
2639;DHT22;1329;51.384;7.122;2022-11-06T10:33:49;13.30;80.30
2639;DHT22;1329;51.384;7.122;2022-11-06T10:36:22;13.30;80.80
2639;DHT22;1329;51.384;7.122;2022-11-06T10:38:51;13.30;83.50
2639;DHT22;1329;51.384;7.122;2022-11-06T10:41:23;13.40;86.10
2639;DHT22;1329;51.384;7.122;2022-11-06T10:43:56;13.40;81.40
2639;DHT22;1329;51.384;7.122;2022-11-06T10:46:30;13.40;81.10
2639;DHT22;1329;51.384;7.122;2022-11-06T10:49:02;13.50;79.90
2639;DHT22;1329;51.384;7.122;2022-11-06T10:51:46;13.50;81.80
2639;DHT22;1329;51.384;7.122;2022-11-06T10:54:30;13.50;74.40
2639;DHT22;1329;51.384;7.122;2022-11-06T10:57:21;13.50;75.10
2639;DHT22;1329;51.384;7.122;2022-11-06T10:59:53;13.60;73.30
2639;DHT22;1329;51.384;7.122;2022-11-06T11:02:26;13.50;77.90
2639;DHT22;1329;51.384;7.122;2022-11-06T11:04:55;13.60;76.90
2639;DHT22;1329;51.384;7.122;2022-11-06T11:07:22;13.60;81.10
2639;DHT22;1329;51.384;7.122;2022-11-06T11:09:49;13.60;80.90
2639;DHT22;1329;51.384;7.122;2022-11-06T11:12:22;13.60;79.00
2639;DHT22;1329;51.384;7.122;2022-11-06T11:15:09;13.60;72.40
2639;DHT22;1329;51.384;7.122;2022-11-06T11:17:39;13.60;68.00
2639;DHT22;1329;51.384;7.122;2022-11-06T11:20:29;13.70;75.10
2639;DHT22;1329;51.384;7.122;2022-11-06T11:23:11;13.70;66.70
2639;DHT22;1329;51.384;7.122;2022-11-06T11:25:43;13.70;69.60
2639;DHT22;1329;51.384;7.122;2022-11-06T11:28:21;13.60;72.60
2639;DHT22;1329;51.384;7.122;2022-11-06T11:31:01;13.60;66.50
2639;DHT22;1329;51.384;7.122;2022-11-06T11:33:30;13.60;70.20
2639;DHT22;1329;51.384;7.122;2022-11-06T11:35:58;13.60;73.40
2639;DHT22;1329;51.384;7.122;2022-11-06T11:38:27;13.60;73.80
2639;DHT22;1329;51.384;7.122;2022-11-06T11:41:05;13.60;73.50
2639;DHT22;1329;51.384;7.122;2022-11-06T11:43:33;13.70;66.30
2639;DHT22;1329;51.384;7.122;2022-11-06T11:46:04;13.70;75.40
2639;DHT22;1329;51.384;7.122;2022-11-06T11:48:42;13.70;70.70
2639;DHT22;1329;51.384;7.122;2022-11-06T11:51:14;13.70;67.70
2639;DHT22;1329;51.384;7.122;2022-11-06T11:53:44;13.80;70.60
2639;DHT22;1329;51.384;7.122;2022-11-06T11:56:13;13.80;73.50
2639;DHT22;1329;51.384;7.122;2022-11-06T11:58:48;13.80;68.70
2639;DHT22;1329;51.384;7.122;2022-11-06T12:01:19;13.90;64.20
2639;DHT22;1329;51.384;7.122;2022-11-06T12:03:59;13.90;67.00
2639;DHT22;1329;51.384;7.122;2022-11-06T12:06:26;13.90;70.50
2639;DHT22;1329;51.384;7.122;2022-11-06T12:08:54;13.90;71.00
2639;DHT22;1329;51.384;7.122;2022-11-06T12:11:25;13.90;68.00
2639;DHT22;1329;51.384;7.122;2022-11-06T12:14:17;13.90;67.00
2639;DHT22;1329;51.384;7.122;2022-11-06T12:16:52;14.00;59.70
2639;DHT22;1329;51.384;7.122;2022-11-06T12:19:26;14.00;64.10
2639;DHT22;1329;51.384;7.122;2022-11-06T12:21:57;14.00;64.50
2639;DHT22;1329;51.384;7.122;2022-11-06T12:24:29;14.00;63.20
2639;DHT22;1329;51.384;7.122;2022-11-06T12:27:05;14.00;62.50
2639;DHT22;1329;51.384;7.122;2022-11-06T12:29:38;14.00;60.80
2639;DHT22;1329;51.384;7.122;2022-11-06T12:32:17;14.00;60.00
2639;DHT22;1329;51.384;7.122;2022-11-06T12:34:51;14.00;55.20
2639;DHT22;1329;51.384;7.122;2022-11-06T12:37:27;14.00;59.10
2639;DHT22;1329;51.384;7.122;2022-11-06T12:40:11;13.90;58.40
2639;DHT22;1329;51.384;7.122;2022-11-06T12:42:54;13.90;58.60
2639;DHT22;1329;51.384;7.122;2022-11-06T12:45:34;13.90;55.90
2639;DHT22;1329;51.384;7.122;2022-11-06T12:48:12;13.90;55.80
2639;DHT22;1329;51.384;7.122;2022-11-06T12:50:50;13.90;57.10
2639;DHT22;1329;51.384;7.122;2022-11-06T12:53:30;13.90;57.70
2639;DHT22;1329;51.384;7.122;2022-11-06T12:56:09;13.90;54.00
2639;DHT22;1329;51.384;7.122;2022-11-06T13:01:49;13.90;54.20
2639;DHT22;1329;51.384;7.122;2022-11-06T13:04:33;13.90;51.80
2639;DHT22;1329;51.384;7.122;2022-11-06T13:07:22;13.90;51.70
2639;DHT22;1329;51.384;7.122;2022-11-06T13:10:06;13.90;49.50
2639;DHT22;1329;51.384;7.122;2022-11-06T13:12:42;13.90;51.60
2639;DHT22;1329;51.384;7.122;2022-11-06T13:15:21;13.90;54.20
2639;DHT22;1329;51.384;7.122;2022-11-06T13:17:56;13.90;51.80
2639;DHT22;1329;51.384;7.122;2022-11-06T13:20:33;13.90;54.90
2639;DHT22;1329;51.384;7.122;2022-11-06T13:23:06;13.90;50.40
2639;DHT22;1329;51.384;7.122;2022-11-06T13:25:46;13.90;51.50
2639;DHT22;1329;51.384;7.122;2022-11-06T13:28:27;13.90;48.80
2639;DHT22;1329;51.384;7.122;2022-11-06T13:30:56;13.90;46.30
2639;DHT22;1329;51.384;7.122;2022-11-06T13:33:25;13.90;54.40
2639;DHT22;1329;51.384;7.122;2022-11-06T13:35:55;14.00;54.00
2639;DHT22;1329;51.384;7.122;2022-11-06T13:38:27;14.00;51.90
2639;DHT22;1329;51.384;7.122;2022-11-06T13:40:58;13.90;50.20
2639;DHT22;1329;51.384;7.122;2022-11-06T13:43:33;14.00;49.80
2639;DHT22;1329;51.384;7.122;2022-11-06T13:46:06;14.00;47.00
2639;DHT22;1329;51.384;7.122;2022-11-06T13:48:42;14.00;46.80
2639;DHT22;1329;51.384;7.122;2022-11-06T13:51:18;14.00;44.30
2639;DHT22;1329;51.384;7.122;2022-11-06T13:53:54;14.00;44.10
2639;DHT22;1329;51.384;7.122;2022-11-06T13:57:02;14.00;43.30
2639;DHT22;1329;51.384;7.122;2022-11-06T13:59:57;14.00;38.80
2639;DHT22;1329;51.384;7.122;2022-11-06T14:02:51;13.90;39.50
2639;DHT22;1329;51.384;7.122;2022-11-06T14:05:52;13.90;37.40
2639;DHT22;1329;51.384;7.122;2022-11-06T14:08:26;13.90;38.00
2639;DHT22;1329;51.384;7.122;2022-11-06T14:10:58;13.90;41.20
2639;DHT22;1329;51.384;7.122;2022-11-06T14:13:28;13.80;40.70
2639;DHT22;1329;51.384;7.122;2022-11-06T14:16:05;13.80;42.20
2639;DHT22;1329;51.384;7.122;2022-11-06T14:18:37;13.80;35.80
2639;DHT22;1329;51.384;7.122;2022-11-06T14:21:27;13.80;43.90
2639;DHT22;1329;51.384;7.122;2022-11-06T14:27:05;13.80;32.20
2639;DHT22;1329;51.384;7.122;2022-11-06T14:29:57;13.80;38.90
2639;DHT22;1329;51.384;7.122;2022-11-06T14:32:46;13.80;28.50
2639;DHT22;1329;51.384;7.122;2022-11-06T14:38:44;13.80;27.20
2639;DHT22;1329;51.384;7.122;2022-11-06T14:44:41;13.80;27.00
2639;DHT22;1329;51.384;7.122;2022-11-06T14:47:29;13.70;26.50
2639;DHT22;1329;51.384;7.122;2022-11-06T14:50:01;13.70;26.40
2639;DHT22;1329;51.384;7.122;2022-11-06T14:52:40;13.70;30.60
2639;DHT22;1329;51.384;7.122;2022-11-06T14:55:23;13.70;26.50
2639;DHT22;1329;51.384;7.122;2022-11-06T14:57:56;13.70;25.90
2639;DHT22;1329;51.384;7.122;2022-11-06T15:00:36;13.70;30.00
2639;DHT22;1329;51.384;7.122;2022-11-06T15:03:17;13.60;27.20
2639;DHT22;1329;51.384;7.122;2022-11-06T15:05:46;13.60;25.50
2639;DHT22;1329;51.384;7.122;2022-11-06T15:08:59;13.60;32.30
2639;DHT22;1329;51.384;7.122;2022-11-06T15:11:55;13.60;22.90
2639;DHT22;1329;51.384;7.122;2022-11-06T15:14:52;13.60;23.20
2639;DHT22;1329;51.384;7.122;2022-11-06T15:17:21;13.60;24.10
2639;DHT22;1329;51.384;7.122;2022-11-06T15:20:05;13.50;30.00
2639;DHT22;1329;51.384;7.122;2022-11-06T15:23:12;13.50;24.30
2639;DHT22;1329;51.384;7.122;2022-11-06T15:26:02;13.50;24.30
2639;DHT22;1329;51.384;7.122;2022-11-06T15:28:39;13.50;23.90
2639;DHT22;1329;51.384;7.122;2022-11-06T15:31:13;13.50;25.30
2639;DHT22;1329;51.384;7.122;2022-11-06T15:33:49;13.50;25.50
2639;DHT22;1329;51.384;7.122;2022-11-06T15:36:20;13.50;25.50
2639;DHT22;1329;51.384;7.122;2022-11-06T15:38:48;13.40;30.90
2639;DHT22;1329;51.384;7.122;2022-11-06T15:41:19;13.40;30.60
2639;DHT22;1329;51.384;7.122;2022-11-06T15:43:48;13.40;26.00
2639;DHT22;1329;51.384;7.122;2022-11-06T15:46:22;13.40;27.90
2639;DHT22;1329;51.384;7.122;2022-11-06T15:49:14;13.40;26.20
2639;DHT22;1329;51.384;7.122;2022-11-06T15:51:53;13.40;23.70
2639;DHT22;1329;51.384;7.122;2022-11-06T15:54:32;13.40;25.50
2639;DHT22;1329;51.384;7.122;2022-11-06T15:57:10;13.30;26.30
2639;DHT22;1329;51.384;7.122;2022-11-06T15:59:40;13.30;27.70
2639;DHT22;1329;51.384;7.122;2022-11-06T16:02:12;13.20;30.30
2639;DHT22;1329;51.384;7.122;2022-11-06T16:04:42;13.10;28.80
2639;DHT22;1329;51.384;7.122;2022-11-06T16:07:10;13.00;31.90
2639;DHT22;1329;51.384;7.122;2022-11-06T16:09:39;13.00;33.40
2639;DHT22;1329;51.384;7.122;2022-11-06T16:12:10;12.90;34.10
2639;DHT22;1329;51.384;7.122;2022-11-06T16:14:39;12.80;35.50
2639;DHT22;1329;51.384;7.122;2022-11-06T16:17:09;12.70;37.00
2639;DHT22;1329;51.384;7.122;2022-11-06T16:19:38;12.60;38.20
2639;DHT22;1329;51.384;7.122;2022-11-06T16:22:08;12.50;39.40
2639;DHT22;1329;51.384;7.122;2022-11-06T16:24:42;12.50;40.30
2639;DHT22;1329;51.384;7.122;2022-11-06T16:27:14;12.40;41.50
2639;DHT22;1329;51.384;7.122;2022-11-06T16:29:45;12.30;44.70
2639;DHT22;1329;51.384;7.122;2022-11-06T16:32:15;12.30;46.10
2639;DHT22;1329;51.384;7.122;2022-11-06T16:34:45;12.20;44.90
2639;DHT22;1329;51.384;7.122;2022-11-06T16:37:34;12.10;45.70
2639;DHT22;1329;51.384;7.122;2022-11-06T16:43:17;11.90;52.20
2639;DHT22;1329;51.384;7.122;2022-11-06T16:45:56;11.80;54.50
2639;DHT22;1329;51.384;7.122;2022-11-06T16:51:15;11.70;57.00
2639;DHT22;1329;51.384;7.122;2022-11-06T16:53:56;11.60;57.50
2639;DHT22;1329;51.384;7.122;2022-11-06T16:56:26;11.50;58.80
2639;DHT22;1329;51.384;7.122;2022-11-06T16:59:00;11.50;59.40